sensor_id;sensor_type;location;lat;lon;timestamp;P1;durP1;ratioP1;P2;durP2;ratioP2
11203;SDS011;5659;49.408;11.116;2022-11-11T00:01:29;27.60;;;15.10;;
11203;SDS011;5659;49.408;11.116;2022-11-11T00:03:55;23.37;;;14.73;;
11203;SDS011;5659;49.408;11.116;2022-11-11T00:06:21;30.43;;;14.80;;
11203;SDS011;5659;49.408;11.116;2022-11-11T00:08:47;21.37;;;14.70;;
11203;SDS011;5659;49.408;11.116;2022-11-11T00:11:13;30.23;;;14.70;;
11203;SDS011;5659;49.408;11.116;2022-11-11T00:13:41;24.20;;;14.50;;
11203;SDS011;5659;49.408;11.116;2022-11-11T00:16:08;24.70;;;14.20;;
11203;SDS011;5659;49.408;11.116;2022-11-11T00:18:38;21.37;;;14.77;;
11203;SDS011;5659;49.408;11.116;2022-11-11T00:21:24;25.77;;;15.07;;
11203;SDS011;5659;49.408;11.116;2022-11-11T00:24:27;25.60;;;16.33;;
11203;SDS011;5659;49.408;11.116;2022-11-11T00:27:12;23.33;;;16.10;;
11203;SDS011;5659;49.408;11.116;2022-11-11T00:29:38;30.03;;;15.67;;
11203;SDS011;5659;49.408;11.116;2022-11-11T00:32:05;26.50;;;16.03;;
11203;SDS011;5659;49.408;11.116;2022-11-11T00:34:50;30.80;;;15.87;;
11203;SDS011;5659;49.408;11.116;2022-11-11T00:37:36;26.70;;;15.67;;
11203;SDS011;5659;49.408;11.116;2022-11-11T00:40:03;28.27;;;16.43;;
11203;SDS011;5659;49.408;11.116;2022-11-11T00:42:29;24.33;;;15.67;;
11203;SDS011;5659;49.408;11.116;2022-11-11T00:44:55;31.43;;;16.70;;
11203;SDS011;5659;49.408;11.116;2022-11-11T00:47:20;25.47;;;15.83;;
11203;SDS011;5659;49.408;11.116;2022-11-11T00:50:15;29.50;;;16.57;;
11203;SDS011;5659;49.408;11.116;2022-11-11T00:53:03;33.93;;;16.30;;
11203;SDS011;5659;49.408;11.116;2022-11-11T00:55:32;22.53;;;15.20;;
11203;SDS011;5659;49.408;11.116;2022-11-11T00:57:57;22.70;;;16.47;;
11203;SDS011;5659;49.408;11.116;2022-11-11T01:00:23;24.53;;;15.93;;
11203;SDS011;5659;49.408;11.116;2022-11-11T01:02:48;33.53;;;17.27;;
11203;SDS011;5659;49.408;11.116;2022-11-11T01:05:14;30.97;;;16.10;;
11203;SDS011;5659;49.408;11.116;2022-11-11T01:07:39;22.67;;;15.63;;
11203;SDS011;5659;49.408;11.116;2022-11-11T01:10:05;26.27;;;15.43;;
11203;SDS011;5659;49.408;11.116;2022-11-11T01:12:31;23.67;;;15.43;;
11203;SDS011;5659;49.408;11.116;2022-11-11T01:14:56;31.67;;;17.33;;
11203;SDS011;5659;49.408;11.116;2022-11-11T01:17:22;23.83;;;15.20;;
11203;SDS011;5659;49.408;11.116;2022-11-11T01:19:48;28.93;;;16.33;;
11203;SDS011;5659;49.408;11.116;2022-11-11T01:22:14;23.30;;;15.40;;
11203;SDS011;5659;49.408;11.116;2022-11-11T01:24:39;26.10;;;15.80;;
11203;SDS011;5659;49.408;11.116;2022-11-11T01:27:05;32.50;;;15.83;;
11203;SDS011;5659;49.408;11.116;2022-11-11T01:29:30;29.47;;;16.60;;
11203;SDS011;5659;49.408;11.116;2022-11-11T01:31:56;29.13;;;17.00;;
11203;SDS011;5659;49.408;11.116;2022-11-11T01:34:21;24.20;;;16.90;;
11203;SDS011;5659;49.408;11.116;2022-11-11T01:36:47;25.40;;;15.37;;
11203;SDS011;5659;49.408;11.116;2022-11-11T01:39:13;27.00;;;16.47;;
11203;SDS011;5659;49.408;11.116;2022-11-11T01:41:38;30.60;;;17.33;;
11203;SDS011;5659;49.408;11.116;2022-11-11T01:54:52;23.90;;;15.93;;
11203;SDS011;5659;49.408;11.116;2022-11-11T01:59:49;30.07;;;15.70;;
11203;SDS011;5659;49.408;11.116;2022-11-11T02:02:25;30.60;;;17.10;;
11203;SDS011;5659;49.408;11.116;2022-11-11T02:05:04;35.77;;;16.87;;
11203;SDS011;5659;49.408;11.116;2022-11-11T02:07:51;28.50;;;16.57;;
11203;SDS011;5659;49.408;11.116;2022-11-11T02:10:23;36.43;;;16.47;;
11203;SDS011;5659;49.408;11.116;2022-11-11T02:12:51;25.13;;;15.70;;
11203;SDS011;5659;49.408;11.116;2022-11-11T02:15:35;31.20;;;17.70;;
11203;SDS011;5659;49.408;11.116;2022-11-11T02:18:01;27.13;;;15.77;;
11203;SDS011;5659;49.408;11.116;2022-11-11T02:20:29;27.83;;;15.73;;
11203;SDS011;5659;49.408;11.116;2022-11-11T02:23:15;23.57;;;14.70;;
11203;SDS011;5659;49.408;11.116;2022-11-11T02:25:46;26.70;;;17.03;;
11203;SDS011;5659;49.408;11.116;2022-11-11T02:28:13;30.83;;;16.13;;
11203;SDS011;5659;49.408;11.116;2022-11-11T02:30:40;24.57;;;16.37;;
11203;SDS011;5659;49.408;11.116;2022-11-11T02:33:05;29.53;;;15.60;;
11203;SDS011;5659;49.408;11.116;2022-11-11T02:35:32;23.63;;;16.33;;
11203;SDS011;5659;49.408;11.116;2022-11-11T02:38:00;26.87;;;15.27;;
11203;SDS011;5659;49.408;11.116;2022-11-11T02:40:37;28.40;;;16.90;;
11203;SDS011;5659;49.408;11.116;2022-11-11T02:43:27;25.43;;;15.97;;
11203;SDS011;5659;49.408;11.116;2022-11-11T02:45:53;23.80;;;14.73;;
11203;SDS011;5659;49.408;11.116;2022-11-11T02:48:19;23.43;;;15.97;;
11203;SDS011;5659;49.408;11.116;2022-11-11T02:50:44;31.80;;;17.60;;
11203;SDS011;5659;49.408;11.116;2022-11-11T02:53:10;29.03;;;16.40;;
11203;SDS011;5659;49.408;11.116;2022-11-11T02:55:36;24.17;;;15.20;;
11203;SDS011;5659;49.408;11.116;2022-11-11T02:58:02;32.33;;;16.27;;
11203;SDS011;5659;49.408;11.116;2022-11-11T03:00:28;26.90;;;16.77;;
11203;SDS011;5659;49.408;11.116;2022-11-11T03:02:53;32.67;;;16.50;;
11203;SDS011;5659;49.408;11.116;2022-11-11T03:05:19;29.13;;;16.37;;
11203;SDS011;5659;49.408;11.116;2022-11-11T03:07:44;33.50;;;16.03;;
11203;SDS011;5659;49.408;11.116;2022-11-11T03:10:10;25.63;;;15.93;;
11203;SDS011;5659;49.408;11.116;2022-11-11T03:12:35;25.10;;;15.47;;
11203;SDS011;5659;49.408;11.116;2022-11-11T03:15:01;24.93;;;15.47;;
11203;SDS011;5659;49.408;11.116;2022-11-11T03:17:27;26.80;;;15.53;;
11203;SDS011;5659;49.408;11.116;2022-11-11T03:20:09;24.10;;;15.43;;
11203;SDS011;5659;49.408;11.116;2022-11-11T03:23:05;27.00;;;16.57;;
11203;SDS011;5659;49.408;11.116;2022-11-11T03:25:33;28.07;;;16.77;;
11203;SDS011;5659;49.408;11.116;2022-11-11T03:28:06;27.90;;;16.00;;
11203;SDS011;5659;49.408;11.116;2022-11-11T03:30:34;28.57;;;16.47;;
11203;SDS011;5659;49.408;11.116;2022-11-11T03:33:00;27.50;;;15.07;;
11203;SDS011;5659;49.408;11.116;2022-11-11T03:35:26;24.73;;;16.33;;
11203;SDS011;5659;49.408;11.116;2022-11-11T03:37:52;22.43;;;15.60;;
11203;SDS011;5659;49.408;11.116;2022-11-11T03:40:36;28.10;;;16.13;;
11203;SDS011;5659;49.408;11.116;2022-11-11T03:43:02;26.70;;;16.37;;
11203;SDS011;5659;49.408;11.116;2022-11-11T03:45:28;27.20;;;16.30;;
11203;SDS011;5659;49.408;11.116;2022-11-11T03:47:53;22.47;;;16.10;;
11203;SDS011;5659;49.408;11.116;2022-11-11T03:50:20;25.47;;;15.43;;
11203;SDS011;5659;49.408;11.116;2022-11-11T03:52:46;29.03;;;16.47;;
11203;SDS011;5659;49.408;11.116;2022-11-11T03:55:11;25.47;;;15.30;;
11203;SDS011;5659;49.408;11.116;2022-11-11T03:57:39;24.93;;;15.50;;
11203;SDS011;5659;49.408;11.116;2022-11-11T04:00:06;26.70;;;15.67;;
11203;SDS011;5659;49.408;11.116;2022-11-11T04:02:32;27.57;;;15.70;;
11203;SDS011;5659;49.408;11.116;2022-11-11T04:05:16;31.33;;;15.97;;
11203;SDS011;5659;49.408;11.116;2022-11-11T04:08:00;30.27;;;15.50;;
11203;SDS011;5659;49.408;11.116;2022-11-11T04:10:44;25.17;;;15.70;;
11203;SDS011;5659;49.408;11.116;2022-11-11T04:13:10;29.83;;;16.57;;
11203;SDS011;5659;49.408;11.116;2022-11-11T04:15:54;27.93;;;16.77;;
11203;SDS011;5659;49.408;11.116;2022-11-11T04:18:32;23.50;;;15.37;;
11203;SDS011;5659;49.408;11.116;2022-11-11T04:21:17;24.87;;;16.07;;
11203;SDS011;5659;49.408;11.116;2022-11-11T04:24:02;26.57;;;16.17;;
11203;SDS011;5659;49.408;11.116;2022-11-11T04:26:48;32.83;;;16.00;;
11203;SDS011;5659;49.408;11.116;2022-11-11T04:29:14;26.63;;;16.60;;
11203;SDS011;5659;49.408;11.116;2022-11-11T04:32:01;29.50;;;17.27;;
11203;SDS011;5659;49.408;11.116;2022-11-11T04:34:46;29.67;;;16.63;;
11203;SDS011;5659;49.408;11.116;2022-11-11T04:37:16;27.37;;;15.43;;
11203;SDS011;5659;49.408;11.116;2022-11-11T04:39:43;30.67;;;17.60;;
11203;SDS011;5659;49.408;11.116;2022-11-11T04:42:27;26.90;;;16.67;;
11203;SDS011;5659;49.408;11.116;2022-11-11T04:44:54;32.07;;;17.70;;
11203;SDS011;5659;49.408;11.116;2022-11-11T04:47:51;26.67;;;16.73;;
11203;SDS011;5659;49.408;11.116;2022-11-11T04:50:17;34.17;;;17.83;;
11203;SDS011;5659;49.408;11.116;2022-11-11T04:52:43;32.43;;;17.80;;
11203;SDS011;5659;49.408;11.116;2022-11-11T04:55:08;26.93;;;16.60;;
11203;SDS011;5659;49.408;11.116;2022-11-11T04:57:52;27.23;;;17.33;;
11203;SDS011;5659;49.408;11.116;2022-11-11T05:00:18;40.13;;;17.83;;
11203;SDS011;5659;49.408;11.116;2022-11-11T05:02:43;26.30;;;16.53;;
11203;SDS011;5659;49.408;11.116;2022-11-11T05:05:28;28.57;;;17.50;;
11203;SDS011;5659;49.408;11.116;2022-11-11T05:08:17;38.70;;;18.37;;
11203;SDS011;5659;49.408;11.116;2022-11-11T05:11:01;24.63;;;16.33;;
11203;SDS011;5659;49.408;11.116;2022-11-11T05:13:27;30.67;;;17.33;;
11203;SDS011;5659;49.408;11.116;2022-11-11T05:16:15;30.10;;;16.83;;
11203;SDS011;5659;49.408;11.116;2022-11-11T05:19:04;32.13;;;17.20;;
11203;SDS011;5659;49.408;11.116;2022-11-11T05:21:50;24.70;;;15.73;;
11203;SDS011;5659;49.408;11.116;2022-11-11T05:24:20;29.23;;;16.50;;
11203;SDS011;5659;49.408;11.116;2022-11-11T05:27:04;23.40;;;14.97;;
11203;SDS011;5659;49.408;11.116;2022-11-11T05:29:29;24.83;;;15.77;;
11203;SDS011;5659;49.408;11.116;2022-11-11T05:31:55;25.43;;;15.93;;
11203;SDS011;5659;49.408;11.116;2022-11-11T05:34:20;25.60;;;15.30;;
11203;SDS011;5659;49.408;11.116;2022-11-11T05:36:46;30.07;;;16.07;;
11203;SDS011;5659;49.408;11.116;2022-11-11T05:39:11;21.90;;;15.57;;
11203;SDS011;5659;49.408;11.116;2022-11-11T05:41:37;22.77;;;16.73;;
11203;SDS011;5659;49.408;11.116;2022-11-11T05:44:02;30.73;;;19.20;;
11203;SDS011;5659;49.408;11.116;2022-11-11T05:46:28;30.43;;;19.53;;
11203;SDS011;5659;49.408;11.116;2022-11-11T05:48:54;30.47;;;19.10;;
11203;SDS011;5659;49.408;11.116;2022-11-11T05:51:38;38.27;;;21.33;;
11203;SDS011;5659;49.408;11.116;2022-11-11T05:54:03;33.33;;;19.50;;
11203;SDS011;5659;49.408;11.116;2022-11-11T05:56:29;37.27;;;20.10;;
11203;SDS011;5659;49.408;11.116;2022-11-11T05:58:54;28.23;;;19.80;;
11203;SDS011;5659;49.408;11.116;2022-11-11T06:01:20;29.93;;;21.07;;
11203;SDS011;5659;49.408;11.116;2022-11-11T06:03:45;32.43;;;19.70;;
11203;SDS011;5659;49.408;11.116;2022-11-11T06:06:11;35.60;;;20.37;;
11203;SDS011;5659;49.408;11.116;2022-11-11T06:08:37;27.40;;;18.20;;
11203;SDS011;5659;49.408;11.116;2022-11-11T06:11:02;30.07;;;19.83;;
11203;SDS011;5659;49.408;11.116;2022-11-11T06:13:28;26.73;;;18.97;;
11203;SDS011;5659;49.408;11.116;2022-11-11T06:15:54;28.90;;;17.60;;
11203;SDS011;5659;49.408;11.116;2022-11-11T06:18:21;32.10;;;18.43;;
11203;SDS011;5659;49.408;11.116;2022-11-11T06:20:51;32.03;;;19.03;;
11203;SDS011;5659;49.408;11.116;2022-11-11T06:23:18;30.83;;;18.90;;
11203;SDS011;5659;49.408;11.116;2022-11-11T06:25:43;36.97;;;18.37;;
11203;SDS011;5659;49.408;11.116;2022-11-11T06:28:27;35.03;;;18.13;;
11203;SDS011;5659;49.408;11.116;2022-11-11T06:30:53;31.77;;;18.60;;
11203;SDS011;5659;49.408;11.116;2022-11-11T06:33:18;33.63;;;18.83;;
11203;SDS011;5659;49.408;11.116;2022-11-11T06:35:45;28.00;;;17.20;;
11203;SDS011;5659;49.408;11.116;2022-11-11T06:38:12;35.73;;;17.73;;
11203;SDS011;5659;49.408;11.116;2022-11-11T06:40:37;27.50;;;16.93;;
11203;SDS011;5659;49.408;11.116;2022-11-11T06:43:03;31.90;;;19.03;;
11203;SDS011;5659;49.408;11.116;2022-11-11T06:45:29;28.63;;;18.00;;
11203;SDS011;5659;49.408;11.116;2022-11-11T06:47:57;34.60;;;18.73;;
11203;SDS011;5659;49.408;11.116;2022-11-11T06:50:22;35.37;;;19.63;;
11203;SDS011;5659;49.408;11.116;2022-11-11T06:52:48;39.67;;;21.00;;
11203;SDS011;5659;49.408;11.116;2022-11-11T06:55:13;38.87;;;19.27;;
11203;SDS011;5659;49.408;11.116;2022-11-11T06:57:39;38.70;;;18.83;;
11203;SDS011;5659;49.408;11.116;2022-11-11T07:00:05;31.40;;;18.80;;
11203;SDS011;5659;49.408;11.116;2022-11-11T07:02:31;35.10;;;18.43;;
11203;SDS011;5659;49.408;11.116;2022-11-11T07:04:57;41.20;;;19.43;;
11203;SDS011;5659;49.408;11.116;2022-11-11T07:07:24;39.80;;;22.10;;
11203;SDS011;5659;49.408;11.116;2022-11-11T07:09:49;32.03;;;21.80;;
11203;SDS011;5659;49.408;11.116;2022-11-11T07:12:15;30.27;;;20.50;;
11203;SDS011;5659;49.408;11.116;2022-11-11T07:14:41;42.13;;;21.60;;
11203;SDS011;5659;49.408;11.116;2022-11-11T07:17:06;34.63;;;21.50;;
11203;SDS011;5659;49.408;11.116;2022-11-11T07:19:32;34.37;;;19.73;;
11203;SDS011;5659;49.408;11.116;2022-11-11T07:21:57;36.47;;;20.93;;
11203;SDS011;5659;49.408;11.116;2022-11-11T07:24:23;37.97;;;21.67;;
11203;SDS011;5659;49.408;11.116;2022-11-11T07:26:48;34.60;;;19.47;;
11203;SDS011;5659;49.408;11.116;2022-11-11T07:29:14;36.23;;;21.47;;
11203;SDS011;5659;49.408;11.116;2022-11-11T07:31:40;39.30;;;20.57;;
11203;SDS011;5659;49.408;11.116;2022-11-11T07:34:06;39.93;;;20.93;;
11203;SDS011;5659;49.408;11.116;2022-11-11T07:36:32;31.93;;;20.93;;
11203;SDS011;5659;49.408;11.116;2022-11-11T07:38:58;36.93;;;20.47;;
11203;SDS011;5659;49.408;11.116;2022-11-11T07:41:24;39.27;;;21.07;;
11203;SDS011;5659;49.408;11.116;2022-11-11T07:43:50;37.43;;;21.20;;
11203;SDS011;5659;49.408;11.116;2022-11-11T07:46:16;33.37;;;20.67;;
11203;SDS011;5659;49.408;11.116;2022-11-11T07:48:41;38.97;;;20.57;;
11203;SDS011;5659;49.408;11.116;2022-11-11T07:51:07;31.37;;;20.80;;
11203;SDS011;5659;49.408;11.116;2022-11-11T07:53:32;31.70;;;20.53;;
11203;SDS011;5659;49.408;11.116;2022-11-11T07:55:58;28.27;;;20.00;;
11203;SDS011;5659;49.408;11.116;2022-11-11T07:58:23;32.73;;;21.13;;
11203;SDS011;5659;49.408;11.116;2022-11-11T08:00:49;37.13;;;23.70;;
11203;SDS011;5659;49.408;11.116;2022-11-11T08:03:15;32.47;;;22.07;;
11203;SDS011;5659;49.408;11.116;2022-11-11T08:05:40;38.20;;;22.97;;
11203;SDS011;5659;49.408;11.116;2022-11-11T08:08:06;36.93;;;21.23;;
11203;SDS011;5659;49.408;11.116;2022-11-11T08:10:33;37.17;;;24.60;;
11203;SDS011;5659;49.408;11.116;2022-11-11T08:12:59;39.03;;;25.53;;
11203;SDS011;5659;49.408;11.116;2022-11-11T08:15:44;41.23;;;24.10;;
11203;SDS011;5659;49.408;11.116;2022-11-11T08:18:10;31.37;;;22.93;;
11203;SDS011;5659;49.408;11.116;2022-11-11T08:20:35;38.40;;;24.20;;
11203;SDS011;5659;49.408;11.116;2022-11-11T08:23:01;36.57;;;23.33;;
11203;SDS011;5659;49.408;11.116;2022-11-11T08:25:29;41.30;;;23.87;;
11203;SDS011;5659;49.408;11.116;2022-11-11T08:27:56;35.60;;;23.77;;
11203;SDS011;5659;49.408;11.116;2022-11-11T08:30:22;37.53;;;22.70;;
11203;SDS011;5659;49.408;11.116;2022-11-11T08:32:47;48.63;;;25.73;;
11203;SDS011;5659;49.408;11.116;2022-11-11T08:35:13;37.23;;;24.33;;
11203;SDS011;5659;49.408;11.116;2022-11-11T08:37:39;41.93;;;23.03;;
11203;SDS011;5659;49.408;11.116;2022-11-11T08:40:04;36.27;;;22.80;;
11203;SDS011;5659;49.408;11.116;2022-11-11T08:42:30;36.07;;;23.60;;
11203;SDS011;5659;49.408;11.116;2022-11-11T08:44:56;36.93;;;24.20;;
11203;SDS011;5659;49.408;11.116;2022-11-11T08:47:21;42.57;;;25.40;;
11203;SDS011;5659;49.408;11.116;2022-11-11T08:49:48;48.23;;;26.07;;
11203;SDS011;5659;49.408;11.116;2022-11-11T08:52:15;39.90;;;25.43;;
11203;SDS011;5659;49.408;11.116;2022-11-11T08:54:41;38.40;;;25.00;;
11203;SDS011;5659;49.408;11.116;2022-11-11T08:57:07;34.37;;;24.20;;
11203;SDS011;5659;49.408;11.116;2022-11-11T08:59:32;39.73;;;24.53;;
11203;SDS011;5659;49.408;11.116;2022-11-11T09:01:58;38.90;;;22.20;;
11203;SDS011;5659;49.408;11.116;2022-11-11T09:04:23;36.60;;;23.77;;
11203;SDS011;5659;49.408;11.116;2022-11-11T09:06:49;41.10;;;25.10;;
11203;SDS011;5659;49.408;11.116;2022-11-11T09:09:14;40.57;;;25.30;;
11203;SDS011;5659;49.408;11.116;2022-11-11T09:11:40;36.60;;;24.07;;
11203;SDS011;5659;49.408;11.116;2022-11-11T09:14:05;37.67;;;22.57;;
11203;SDS011;5659;49.408;11.116;2022-11-11T09:16:31;31.67;;;23.10;;
11203;SDS011;5659;49.408;11.116;2022-11-11T09:18:57;34.87;;;21.47;;
11203;SDS011;5659;49.408;11.116;2022-11-11T09:21:22;31.97;;;21.33;;
11203;SDS011;5659;49.408;11.116;2022-11-11T09:23:48;30.17;;;19.17;;
11203;SDS011;5659;49.408;11.116;2022-11-11T09:26:14;25.43;;;19.03;;
11203;SDS011;5659;49.408;11.116;2022-11-11T09:28:39;29.87;;;18.30;;
11203;SDS011;5659;49.408;11.116;2022-11-11T09:31:05;23.92;;;15.85;;
11203;SDS011;5659;49.408;11.116;2022-11-11T09:33:31;16.60;;;11.95;;
11203;SDS011;5659;49.408;11.116;2022-11-11T09:35:57;13.90;;;9.63;;
11203;SDS011;5659;49.408;11.116;2022-11-11T09:38:23;12.30;;;8.60;;
11203;SDS011;5659;49.408;11.116;2022-11-11T09:51:15;9.70;;;5.35;;
11203;SDS011;5659;49.408;11.116;2022-11-11T09:53:43;5.57;;;4.50;;
11203;SDS011;5659;49.408;11.116;2022-11-11T09:56:17;6.78;;;4.90;;
11203;SDS011;5659;49.408;11.116;2022-11-11T09:59:28;11.15;;;5.18;;
11203;SDS011;5659;49.408;11.116;2022-11-11T10:01:49;9.00;;;4.55;;
11203;SDS011;5659;49.408;11.116;2022-11-11T10:04:44;5.68;;;4.20;;
11203;SDS011;5659;49.408;11.116;2022-11-11T10:07:11;7.35;;;3.97;;
11203;SDS011;5659;49.408;11.116;2022-11-11T10:09:43;6.05;;;3.83;;
11203;SDS011;5659;49.408;11.116;2022-11-11T10:12:14;8.60;;;4.13;;
11203;SDS011;5659;49.408;11.116;2022-11-11T10:14:41;7.22;;;4.57;;
11203;SDS011;5659;49.408;11.116;2022-11-11T10:20:06;6.97;;;3.60;;
11203;SDS011;5659;49.408;11.116;2022-11-11T10:22:39;7.68;;;4.13;;
11203;SDS011;5659;49.408;11.116;2022-11-11T10:25:27;7.80;;;3.58;;
11203;SDS011;5659;49.408;11.116;2022-11-11T10:27:53;6.82;;;3.47;;
11203;SDS011;5659;49.408;11.116;2022-11-11T10:30:28;4.97;;;3.40;;
11203;SDS011;5659;49.408;11.116;2022-11-11T10:33:05;4.78;;;3.30;;
11203;SDS011;5659;49.408;11.116;2022-11-11T10:35:34;4.07;;;3.03;;
11203;SDS011;5659;49.408;11.116;2022-11-11T10:40:51;4.20;;;3.00;;
11203;SDS011;5659;49.408;11.116;2022-11-11T10:43:22;4.90;;;2.95;;
11203;SDS011;5659;49.408;11.116;2022-11-11T10:51:15;6.20;;;2.78;;
11203;SDS011;5659;49.408;11.116;2022-11-11T10:58:40;6.88;;;2.75;;
11203;SDS011;5659;49.408;11.116;2022-11-11T11:01:09;5.25;;;2.67;;
11203;SDS011;5659;49.408;11.116;2022-11-11T11:03:38;4.28;;;2.53;;
11203;SDS011;5659;49.408;11.116;2022-11-11T11:06:09;4.43;;;2.88;;
11203;SDS011;5659;49.408;11.116;2022-11-11T11:08:44;5.32;;;2.95;;
11203;SDS011;5659;49.408;11.116;2022-11-11T11:14:20;4.40;;;2.42;;
11203;SDS011;5659;49.408;11.116;2022-11-11T11:16:51;3.63;;;2.20;;
11203;SDS011;5659;49.408;11.116;2022-11-11T11:21:53;4.72;;;2.35;;
11203;SDS011;5659;49.408;11.116;2022-11-11T11:26:48;5.18;;;2.13;;
11203;SDS011;5659;49.408;11.116;2022-11-11T11:29:22;2.78;;;2.00;;
11203;SDS011;5659;49.408;11.116;2022-11-11T11:31:49;3.33;;;2.03;;
11203;SDS011;5659;49.408;11.116;2022-11-11T11:34:15;2.72;;;2.00;;
11203;SDS011;5659;49.408;11.116;2022-11-11T11:36:41;4.20;;;1.98;;
11203;SDS011;5659;49.408;11.116;2022-11-11T11:39:07;3.72;;;2.25;;
11203;SDS011;5659;49.408;11.116;2022-11-11T11:44:02;3.75;;;1.88;;
11203;SDS011;5659;49.408;11.116;2022-11-11T11:46:38;4.80;;;1.77;;
11203;SDS011;5659;49.408;11.116;2022-11-11T11:49:11;3.03;;;1.73;;
11203;SDS011;5659;49.408;11.116;2022-11-11T11:56:40;8.35;;;1.88;;
11203;SDS011;5659;49.408;11.116;2022-11-11T11:59:18;3.22;;;1.88;;
11203;SDS011;5659;49.408;11.116;2022-11-11T12:01:55;2.75;;;1.80;;
11203;SDS011;5659;49.408;11.116;2022-11-11T12:14:44;4.75;;;1.90;;
11203;SDS011;5659;49.408;11.116;2022-11-11T12:25:05;4.55;;;1.90;;
11203;SDS011;5659;49.408;11.116;2022-11-11T12:35:01;4.00;;;1.60;;
11203;SDS011;5659;49.408;11.116;2022-11-11T12:37:43;3.08;;;1.80;;
11203;SDS011;5659;49.408;11.116;2022-11-11T12:48:15;5.93;;;1.85;;
11203;SDS011;5659;49.408;11.116;2022-11-11T12:55:56;5.53;;;2.20;;
11203;SDS011;5659;49.408;11.116;2022-11-11T12:58:34;2.88;;;2.00;;
11203;SDS011;5659;49.408;11.116;2022-11-11T13:13:47;2.35;;;1.58;;
11203;SDS011;5659;49.408;11.116;2022-11-11T13:16:16;5.03;;;1.95;;
11203;SDS011;5659;49.408;11.116;2022-11-11T13:18:48;2.78;;;1.75;;
11203;SDS011;5659;49.408;11.116;2022-11-11T13:21:20;3.63;;;1.77;;
11203;SDS011;5659;49.408;11.116;2022-11-11T13:23:48;2.53;;;1.73;;
11203;SDS011;5659;49.408;11.116;2022-11-11T13:26:21;2.83;;;1.70;;
11203;SDS011;5659;49.408;11.116;2022-11-11T13:28:49;3.72;;;1.73;;
11203;SDS011;5659;49.408;11.116;2022-11-11T13:31:24;4.65;;;1.90;;
11203;SDS011;5659;49.408;11.116;2022-11-11T13:33:54;3.22;;;1.90;;
11203;SDS011;5659;49.408;11.116;2022-11-11T13:36:23;4.60;;;2.33;;
11203;SDS011;5659;49.408;11.116;2022-11-11T13:38:51;2.42;;;1.70;;
11203;SDS011;5659;49.408;11.116;2022-11-11T13:41:23;6.32;;;2.40;;
11203;SDS011;5659;49.408;11.116;2022-11-11T13:43:50;4.50;;;2.00;;
11203;SDS011;5659;49.408;11.116;2022-11-11T13:46:32;5.35;;;2.40;;
11203;SDS011;5659;49.408;11.116;2022-11-11T13:48:59;4.90;;;2.22;;
11203;SDS011;5659;49.408;11.116;2022-11-11T13:51:38;4.93;;;2.20;;
11203;SDS011;5659;49.408;11.116;2022-11-11T13:54:05;3.83;;;2.30;;
11203;SDS011;5659;49.408;11.116;2022-11-11T13:56:45;3.67;;;2.30;;
11203;SDS011;5659;49.408;11.116;2022-11-11T13:59:22;4.93;;;2.45;;
11203;SDS011;5659;49.408;11.116;2022-11-11T14:02:10;3.50;;;2.35;;
11203;SDS011;5659;49.408;11.116;2022-11-11T14:04:58;3.00;;;2.03;;
11203;SDS011;5659;49.408;11.116;2022-11-11T14:10:05;2.85;;;2.13;;
11203;SDS011;5659;49.408;11.116;2022-11-11T14:12:33;3.88;;;2.33;;
11203;SDS011;5659;49.408;11.116;2022-11-11T14:14:59;3.05;;;2.17;;
11203;SDS011;5659;49.408;11.116;2022-11-11T14:17:26;6.43;;;2.70;;
11203;SDS011;5659;49.408;11.116;2022-11-11T14:19:52;4.03;;;2.25;;
11203;SDS011;5659;49.408;11.116;2022-11-11T14:24:53;5.05;;;2.35;;
11203;SDS011;5659;49.408;11.116;2022-11-11T14:27:22;3.90;;;2.30;;
11203;SDS011;5659;49.408;11.116;2022-11-11T14:29:51;5.43;;;2.50;;
11203;SDS011;5659;49.408;11.116;2022-11-11T14:40:11;6.45;;;2.47;;
11203;SDS011;5659;49.408;11.116;2022-11-11T14:42:47;4.72;;;2.50;;
11203;SDS011;5659;49.408;11.116;2022-11-11T14:51:33;7.93;;;2.60;;
11203;SDS011;5659;49.408;11.116;2022-11-11T14:54:17;6.05;;;2.58;;
11203;SDS011;5659;49.408;11.116;2022-11-11T14:56:59;3.10;;;2.70;;
11203;SDS011;5659;49.408;11.116;2022-11-11T14:59:30;4.32;;;2.97;;
11203;SDS011;5659;49.408;11.116;2022-11-11T15:01:57;3.83;;;2.95;;
11203;SDS011;5659;49.408;11.116;2022-11-11T15:04:23;6.57;;;3.25;;
11203;SDS011;5659;49.408;11.116;2022-11-11T15:06:57;6.97;;;3.30;;
11203;SDS011;5659;49.408;11.116;2022-11-11T15:15:01;3.65;;;2.50;;
11203;SDS011;5659;49.408;11.116;2022-11-11T15:20:26;5.68;;;3.13;;
11203;SDS011;5659;49.408;11.116;2022-11-11T15:30:52;5.95;;;2.83;;
11203;SDS011;5659;49.408;11.116;2022-11-11T15:39:09;6.15;;;3.88;;
11203;SDS011;5659;49.408;11.116;2022-11-11T15:41:38;4.90;;;3.42;;
11203;SDS011;5659;49.408;11.116;2022-11-11T15:44:14;7.43;;;4.10;;
11203;SDS011;5659;49.408;11.116;2022-11-11T15:46:40;7.83;;;3.67;;
11203;SDS011;5659;49.408;11.116;2022-11-11T15:49:41;4.85;;;3.45;;
11203;SDS011;5659;49.408;11.116;2022-11-11T15:51:59;11.53;;;4.87;;
11203;SDS011;5659;49.408;11.116;2022-11-11T15:54:25;7.45;;;4.28;;
11203;SDS011;5659;49.408;11.116;2022-11-11T15:56:50;6.63;;;4.27;;
11203;SDS011;5659;49.408;11.116;2022-11-11T15:59:21;9.00;;;4.33;;
11203;SDS011;5659;49.408;11.116;2022-11-11T16:01:48;8.23;;;3.93;;
11203;SDS011;5659;49.408;11.116;2022-11-11T16:04:18;10.70;;;4.10;;
11203;SDS011;5659;49.408;11.116;2022-11-11T16:06:45;6.10;;;4.20;;
11203;SDS011;5659;49.408;11.116;2022-11-11T16:09:12;7.13;;;4.50;;
11203;SDS011;5659;49.408;11.116;2022-11-11T16:11:40;7.37;;;4.30;;
11203;SDS011;5659;49.408;11.116;2022-11-11T16:14:06;6.17;;;4.57;;
11203;SDS011;5659;49.408;11.116;2022-11-11T16:16:40;6.37;;;5.20;;
11203;SDS011;5659;49.408;11.116;2022-11-11T16:19:17;7.30;;;4.50;;
11203;SDS011;5659;49.408;11.116;2022-11-11T16:21:49;10.23;;;4.60;;
11203;SDS011;5659;49.408;11.116;2022-11-11T16:24:38;16.23;;;5.00;;
11203;SDS011;5659;49.408;11.116;2022-11-11T16:27:06;8.30;;;4.90;;
11203;SDS011;5659;49.408;11.116;2022-11-11T16:29:36;5.90;;;4.20;;
11203;SDS011;5659;49.408;11.116;2022-11-11T16:34:47;6.40;;;5.00;;
11203;SDS011;5659;49.408;11.116;2022-11-11T16:37:14;14.17;;;5.47;;
11203;SDS011;5659;49.408;11.116;2022-11-11T16:39:40;8.50;;;4.90;;
11203;SDS011;5659;49.408;11.116;2022-11-11T16:42:17;7.37;;;5.13;;
11203;SDS011;5659;49.408;11.116;2022-11-11T16:50:04;9.27;;;5.87;;
11203;SDS011;5659;49.408;11.116;2022-11-11T16:57:59;10.80;;;6.17;;
11203;SDS011;5659;49.408;11.116;2022-11-11T17:00:25;14.63;;;6.30;;
11203;SDS011;5659;49.408;11.116;2022-11-11T17:05:47;16.90;;;10.20;;
11203;SDS011;5659;49.408;11.116;2022-11-11T17:10:58;14.70;;;9.60;;
11203;SDS011;5659;49.408;11.116;2022-11-11T17:13:25;14.27;;;9.60;;
11203;SDS011;5659;49.408;11.116;2022-11-11T17:15:52;19.70;;;8.63;;
11203;SDS011;5659;49.408;11.116;2022-11-11T17:18:18;10.83;;;7.90;;
11203;SDS011;5659;49.408;11.116;2022-11-11T17:20:44;14.80;;;8.77;;
11203;SDS011;5659;49.408;11.116;2022-11-11T17:23:10;15.93;;;10.20;;
11203;SDS011;5659;49.408;11.116;2022-11-11T17:25:36;13.90;;;9.47;;
11203;SDS011;5659;49.408;11.116;2022-11-11T17:28:02;17.60;;;9.40;;
11203;SDS011;5659;49.408;11.116;2022-11-11T17:30:28;17.10;;;9.10;;
11203;SDS011;5659;49.408;11.116;2022-11-11T17:32:53;12.13;;;8.40;;
11203;SDS011;5659;49.408;11.116;2022-11-11T17:35:19;13.40;;;9.07;;